TimeAKDT,TemperatureF,Dew PointF,Humidity,Sea Level PressureIn,VisibilityMPH,Wind Direction,Wind SpeedMPH,Gust SpeedMPH,PrecipitationIn,Events,Conditions,WindDirDegrees,DateUTC
12:17 AM,55.4,53.6,94,30.04,10.0,WSW,11.5,-,N/A,,Overcast,250,2013-07-31 08:17:00
12:32 AM,55.4,53.6,94,30.05,10.0,WSW,11.5,-,N/A,,Overcast,240,2013-07-31 08:32:00
12:53 AM,55.0,53.1,93,30.06,10.0,WSW,11.5,-,N/A,,Overcast,250,2013-07-31 08:53:00
1:36 AM,53.6,53.6,100,30.05,10.0,WSW,8.1,-,N/A,,Overcast,240,2013-07-31 09:36:00
1:53 AM,54.0,53.1,97,30.05,10.0,WSW,8.1,-,N/A,,Overcast,240,2013-07-31 09:53:00
2:17 AM,53.6,53.6,100,30.05,10.0,WSW,10.4,-,N/A,,Overcast,240,2013-07-31 10:17:00
2:53 AM,54.0,53.1,97,30.05,10.0,SW,11.5,-,N/A,,Overcast,230,2013-07-31 10:53:00
3:35 AM,53.6,53.6,100,30.05,10.0,SW,10.4,-,N/A,,Overcast,220,2013-07-31 11:35:00
3:53 AM,54.0,53.1,97,30.05,10.0,SW,11.5,-,N/A,,Overcast,230,2013-07-31 11:53:00
4:53 AM,54.0,53.1,97,30.05,10.0,WSW,8.1,-,N/A,,Overcast,240,2013-07-31 12:53:00
5:37 AM,53.6,53.6,100,30.04,10.0,SW,8.1,-,N/A,,Overcast,230,2013-07-31 13:37:00
5:53 AM,54.0,53.1,97,30.04,10.0,SW,8.1,-,N/A,,Overcast,230,2013-07-31 13:53:00
6:33 AM,53.6,53.6,100,30.03,2.0,WSW,8.1,-,0.01,Rain,Light Rain,240,2013-07-31 14:33:00
6:44 AM,53.6,53.6,100,30.03,2.5,SW,8.1,-,0.02,Rain,Light Rain,220,2013-07-31 14:44:00
6:51 AM,53.6,53.6,100,30.03,3.0,SW,11.5,-,0.03,Rain,Light Rain,230,2013-07-31 14:51:00
6:53 AM,55.0,54.0,96,30.04,3.0,SW,12.7,-,0.03,Rain,Light Rain,230,2013-07-31 14:53:00
7:01 AM,55.4,53.6,94,30.03,3.0,WSW,12.7,-,0.01,Rain,Light Rain,240,2013-07-31 15:01:00
7:53 AM,54.0,53.1,97,30.04,4.0,WSW,16.1,-,0.03,Rain,Light Rain,250,2013-07-31 15:53:00
8:05 AM,53.6,53.6,100,30.03,2.0,WSW,17.3,-,0.01,Rain,Light Rain,250,2013-07-31 16:05:00
8:53 AM,53.1,52.0,96,30.05,2.0,WNW,10.4,-,0.02,,Overcast,290,2013-07-31 16:53:00
9:00 AM,53.6,51.8,94,30.04,6.0,West,9.2,-,N/A,,Overcast,280,2013-07-31 17:00:00
9:53 AM,52.0,51.1,97,30.06,2.0,WNW,12.7,-,0.00,,Overcast,300,2013-07-31 17:53:00
10:53 AM,53.1,51.1,93,30.07,2.0,WNW,12.7,-,N/A,,Overcast,290,2013-07-31 18:53:00
11:13 AM,51.8,51.8,100,30.07,1.0,NW,11.5,-,0.00,,Overcast,310,2013-07-31 19:13:00
11:37 AM,51.8,50.0,94,30.08,1.0,NNW,10.4,-,0.00,,Overcast,330,2013-07-31 19:37:00
11:53 AM,50.0,48.9,96,30.09,2.0,NNW,12.7,-,0.00,,Overcast,330,2013-07-31 19:53:00
12:34 PM,48.2,48.2,100,30.10,7.0,NW,8.1,-,N/A,,Overcast,320,2013-07-31 20:34:00
12:53 PM,50.0,48.0,93,30.11,7.0,NW,9.2,-,N/A,,Overcast,310,2013-07-31 20:53:00
1:04 PM,50.0,48.2,94,30.10,10.0,WNW,8.1,-,N/A,,Overcast,300,2013-07-31 21:04:00
1:53 PM,50.0,46.9,89,30.11,10.0,NW,11.5,-,N/A,,Overcast,320,2013-07-31 21:53:00
2:53 PM,48.9,46.9,93,30.12,10.0,NW,9.2,-,0.01,Rain,Light Rain,320,2013-07-31 22:53:00
3:46 PM,50.0,48.2,94,30.12,2.0,NNW,6.9,-,0.00,,Overcast,330,2013-07-31 23:46:00
3:53 PM,48.9,48.0,97,30.12,1.2,NNW,8.1,-,0.00,,Overcast,330,2013-07-31 23:53:00
4:07 PM,48.2,48.2,100,30.12,3.0,NNW,6.9,-,N/A,,Overcast,330,2013-08-01 00:07:00
4:38 PM,48.2,46.4,93,30.12,1.5,NNW,8.1,-,N/A,,Overcast,330,2013-08-01 00:38:00
4:53 PM,48.0,46.9,96,30.13,1.5,NNW,9.2,-,N/A,,Overcast,340,2013-08-01 00:53:00
5:53 PM,46.9,45.0,93,30.13,6.0,North,5.8,-,0.00,,Overcast,350,2013-08-01 01:53:00
6:05 PM,46.4,44.6,93,30.12,10.0,North,4.6,-,N/A,,Overcast,350,2013-08-01 02:05:00
6:31 PM,46.4,44.6,93,30.12,10.0,North,4.6,-,N/A,,Overcast,10,2013-08-01 02:31:00
6:53 PM,48.0,45.0,89,30.12,10.0,North,3.5,-,N/A,,Overcast,360,2013-08-01 02:53:00
7:53 PM,48.0,44.1,86,30.12,10.0,NNE,5.8,-,N/A,,Overcast,30,2013-08-01 03:53:00
8:38 PM,46.4,42.8,87,30.12,10.0,Calm,Calm,-,N/A,,Overcast,0,2013-08-01 04:38:00
8:49 PM,46.4,42.8,87,30.11,10.0,Calm,Calm,-,N/A,,Overcast,0,2013-08-01 04:49:00
8:53 PM,46.9,43.0,86,30.12,10.0,Calm,Calm,-,N/A,,Overcast,0,2013-08-01 04:53:00
9:53 PM,46.9,43.0,86,30.12,10.0,Calm,Calm,-,N/A,,Overcast,0,2013-08-01 05:53:00
10:53 PM,46.0,43.0,89,30.11,10.0,East,4.6,-,0.00,Rain,Light Rain,80,2013-08-01 06:53:00
11:53 PM,45.0,43.0,93,30.10,10.0,East,8.1,-,0.00,,Overcast,90,2013-08-01 07:53:00